• Join FlightAware (Why Join?)
  • Login
  • US Flag 
10:14PM EDT


 

Airport Tracker/Info


-or-


 

Live Flight TrackerFlight Track Log ✈ SWA2165 ✈ 24-May-2013 ✈ KBWI - KABQ

Flight Track Log - Related Links

Times and Time Zones

All times are in EDT time to prevent confusion due to time zone crossing. See the SWA2165 flight status page for this flight to view local times or setup timezone preferences in your user account.

Time Position Orientation Groundspeed Altitude Reporting Facility
EDT Latitude Longitude Course Direction KTS MPH feet Rate Location/Type
12:00PM 39.1833 -76.8000 284° West 219 252 3,700  Level Potomac TRACON
12:01PM 39.2000 -76.8833 284° West 243 280 5,800 2,520 Climbing Potomac TRACON
12:03PM 39.2106 -77.0864 274° West 271 312 11,400 2,700 Climbing Washington Center
12:04PM 39.1800 -77.1900 249° West 295 339 14,300 3,000 Climbing Washington Center
12:05PM 39.1000 -77.2525 211° Southwest 286 329 17,600 2,820 Climbing Washington Center
12:06PM 39.0219 -77.3175 213° Southwest 310 357 20,000 2,460 Climbing Washington Center
12:07PM 38.9786 -77.4342 244° Southwest 342 394 22,500 2,220 Climbing Washington Center
12:08PM 38.9639 -77.5592 261° West 356 410 24,500 1,920 Climbing Washington Center
12:09PM 38.9364 -77.7106 257° West 392 451 26,500 1,920 Climbing Washington Center
12:10PM 38.9153 -77.8381 258° West 403 464 28,300 1,440 Climbing Washington Center
12:11PM 38.8897 -77.9814 257° West 414 476 29,400 1,200 Climbing Washington Center
12:12PM 38.8658 -78.1272 258° West 414 476 30,800 1,500 Climbing Washington Center
12:13PM 38.8500 -78.2758 262° West 414 476 32,400 1,200 Climbing Washington Center
12:14PM 38.8508 -78.4306 270° West 425 489 33,300 780 Climbing Washington Center
12:15PM 38.8489 -78.5878 269° West 431 496 34,000 300 Climbing Washington Center
12:16PM 38.8492 -78.7450 270° West 443 510 34,000  Level Washington Center
12:17PM 38.8450 -78.9019 268° West 443 510 34,000  Level Washington Center
12:18PM 38.8425 -79.0644 269° West 443 510 34,000 300 Level Washington Center
12:19PM 38.8419 -79.2217 270° West 443 510 34,600 480 Climbing Washington Center
12:20PM 38.8392 -79.3817 269° West 448 516 35,000 180 Climbing Washington Center
12:21PM 38.8361 -79.5386 269° West 448 516 35,000 240 Level Washington Center
12:22PM 38.8322 -79.7197 268° West 454 522 35,600 480 Climbing Washington Center
12:23PM 38.8286 -79.8767 268° West 454 522 36,000 240 Climbing Washington Center
12:24PM 38.8231 -79.9375 263° West 439 505 36,000  Level Indianapolis Center
12:25PM 38.8200 -80.0939 269° West 438 504 36,000  Level Indianapolis Center
12:26PM 38.8156 -80.2506 268° West 440 506 36,000  Level Indianapolis Center
12:27PM 38.8114 -80.4075 268° West 440 506 36,000  Level Indianapolis Center
12:28PM 38.8061 -80.5628 268° West 437 503 36,000  Level Indianapolis Center
12:29PM 38.8017 -80.7217 268° West 444 511 36,000  Level Indianapolis Center
12:30PM 38.7961 -80.9131 268° West 448 516 36,000  Level Indianapolis Center
12:31PM 38.7911 -81.0706 268° West 445 512 36,000  Level Indianapolis Center
12:32PM 38.7856 -81.2258 267° West 439 505 36,000  Level Indianapolis Center
12:33PM 38.7803 -81.3789 268° West 434 499 36,000  Level Indianapolis Center
12:34PM 38.7733 -81.5539 267° West 431 496 36,000  Level Indianapolis Center
12:35PM 38.7675 -81.7058 267° West 431 496 36,000  Level Indianapolis Center
12:36PM 38.7622 -81.8589 268° West 431 496 36,000  Level Indianapolis Center
12:37PM 38.7556 -82.0072 267° West 420 483 36,000  Level Indianapolis Center
12:38PM 38.7500 -82.1539 267° West 414 476 36,000  Level Indianapolis Center
12:39PM 38.7447 -82.3033 267° West 420 483 36,000  Level Indianapolis Center
12:40PM 38.7378 -82.4544 267° West 424 488 36,000  Level Indianapolis Center
12:41PM 38.7311 -82.6367 267° West 426 490 36,000  Level Indianapolis Center
12:42PM 38.7244 -82.7869 267° West 423 487 36,000  Level Indianapolis Center
12:43PM 38.7175 -82.9350 267° West 418 481 36,000  Level Indianapolis Center
12:44PM 38.7117 -83.0844 267° West 419 482 36,000  Level Indianapolis Center
12:45PM 38.7036 -83.2489 266° West 420 483 36,000  Level Indianapolis Center
12:47PM 38.6958 -83.4000 266° West 421 484 36,000  Level Indianapolis Center
12:48PM 38.6886 -83.5497 267° West 417 480 36,000  Level Indianapolis Center
12:49PM 38.6814 -83.7006 267° West 419 482 36,000  Level Indianapolis Center
12:50PM 38.6744 -83.8450 267° West 409 471 36,000  Level Indianapolis Center
12:51PM 38.6664 -83.9892 266° West 402 463 36,000  Level Indianapolis Center
12:52PM 38.6589 -84.1317 266° West 398 458 36,000  Level Indianapolis Center
12:53PM 38.6494 -84.3014 266° West 405 466 36,000  Level Indianapolis Center
12:54PM 38.6572 -84.4453 274° West 402 463 36,000  Level Indianapolis Center
12:55PM 38.6644 -84.5861 274° West 401 461 36,000  Level Indianapolis Center
12:56PM 38.6733 -84.7294 275° West 404 465 36,000  Level Indianapolis Center
12:57PM 38.6822 -84.8733 275° West 406 467 36,000  Level Indianapolis Center
12:58PM 38.6903 -85.0178 274° West 407 468 36,000  Level Indianapolis Center
12:59PM 38.6981 -85.1614 274° West 405 466 36,000  Level Indianapolis Center
01:00PM 38.7072 -85.3344 274° West 405 466 36,000  Level Indianapolis Center
01:01PM 38.7142 -85.4769 274° West 402 463 36,000  Level Indianapolis Center
01:02PM 38.7208 -85.6178 274° West 398 458 36,000  Level Indianapolis Center
01:03PM 38.7283 -85.7572 274° West 393 452 36,000  Level Indianapolis Center
01:04PM 38.7347 -85.8967 273° West 392 451 36,000  Level Indianapolis Center
01:05PM 38.7417 -86.0339 274° West 394 453 36,000  Level Indianapolis Center
01:06PM 38.7492 -86.2017 273° West 394 453 36,000  Level Indianapolis Center
01:07PM 38.7553 -86.3419 273° West 395 455 36,000  Level Indianapolis Center
01:08PM 38.7611 -86.4828 273° West 396 456 36,000  Level Indianapolis Center
01:09PM 38.7664 -86.6228 273° West 395 455 36,000  Level Indianapolis Center
01:10PM 38.7731 -86.7639 274° West 396 456 36,000  Level Indianapolis Center
01:11PM 38.7778 -86.9042 273° West 396 456 36,000  Level Indianapolis Center
01:12PM 38.7850 -87.0742 273° West 399 459 36,000  Level Indianapolis Center
01:13PM 38.7894 -87.2136 272° West 395 455 36,000  Level Indianapolis Center
01:14PM 38.7947 -87.3519 273° West 392 451 36,000  Level Indianapolis Center
01:15PM 38.7994 -87.4900 273° West 388 447 36,000  Level Indianapolis Center
01:16PM 38.8039 -87.6286 272° West 389 448 36,000  Level Indianapolis Center
01:17PM 38.8081 -87.7703 272° West 396 456 36,000  Level Indianapolis Center
01:18PM 38.8117 -87.9117 272° West 397 457 36,000  Level Indianapolis Center
01:20PM 38.8172 -88.0797 272° West 394 453 36,000  Level Indianapolis Center
01:20PM 38.8183 -88.1661 271° West 395 455 36,000  Level Kansas City Center
01:21PM 38.8208 -88.3069 271° West 395 455 36,000  Level Kansas City Center
01:22PM 38.8258 -88.4467 273° West 393 452 36,000  Level Kansas City Center
01:23PM 38.8286 -88.5869 272° West 393 452 36,000  Level Kansas City Center
01:24PM 38.8311 -88.7175 271° West 396 456 36,000  Level Kansas City Center
01:25PM 38.8350 -88.8858 272° West 396 456 36,000  Level Kansas City Center
01:26PM 38.8397 -89.0308 272° West 399 459 36,000  Level Kansas City Center
01:27PM 38.8433 -89.1836 272° West 401 461 36,000  Level Kansas City Center
01:28PM 38.8458 -89.3233 271° West 396 456 36,000  Level Kansas City Center
01:29PM 38.8492 -89.4753 272° West 397 457 36,000  Level Kansas City Center
01:30PM 38.8519 -89.6153 272° West 396 456 36,000  Level Kansas City Center
01:31PM 38.8531 -89.7606 271° West 396 456 36,000  Level Kansas City Center
01:33PM 38.8539 -89.9006 270° West 396 456 36,000  Level Kansas City Center
01:34PM 38.8578 -90.0464 272° West 396 456 36,000  Level Kansas City Center
01:35PM 38.8600 -90.1889 271° West 398 458 36,000  Level Kansas City Center
01:36PM 38.8625 -90.3325 271° West 401 461 36,000  Level Kansas City Center
01:37PM 38.8628 -90.4767 270° West 403 464 36,000  Level Kansas City Center
01:38PM 38.8406 -90.6478 261° West 403 464 36,000  Level Kansas City Center
01:39PM 38.8239 -90.7739 260° West 406 467 36,000  Level Kansas City Center
01:40PM 38.8050 -90.9172 260° West 409 471 36,000  Level Kansas City Center
01:41PM 38.7822 -91.0872 260° West 408 470 36,000  Level Kansas City Center
01:42PM 38.7644 -91.2308 261° West 409 471 36,000  Level Kansas City Center
01:43PM 38.7453 -91.3725 260° West 406 467 36,000  Level Kansas City Center
01:44PM 38.7253 -91.5156 260° West 407 468 36,000  Level Kansas City Center
01:45PM 38.7022 -91.6789 260° West 405 466 36,000  Level Kansas City Center
01:46PM 38.6825 -91.8211 260° West 406 467 36,000  Level Kansas City Center
01:47PM 38.6617 -91.9647 260° West 409 471 36,000  Level Kansas City Center
01:48PM 38.6397 -92.1078 259° West 410 472 36,000  Level Kansas City Center
01:49PM 38.6200 -92.2522 260° West 411 473 36,000  Level Kansas City Center
01:50PM 38.5989 -92.3944 259° West 410 472 36,000  Level Kansas City Center
01:51PM 38.5739 -92.5622 259° West 405 466 36,000  Level Kansas City Center
01:52PM 38.5522 -92.7039 259° West 406 467 36,000  Level Kansas City Center
01:53PM 38.5300 -92.8475 259° West 410 472 36,000  Level Kansas City Center
01:54PM 38.5092 -92.9872 259° West 406 467 36,000  Level Kansas City Center
01:55PM 38.4878 -93.1286 259° West 406 467 36,000  Level Kansas City Center
01:56PM 38.4667 -93.2683 259° West 403 464 36,000  Level Kansas City Center
01:57PM 38.4406 -93.4361 259° West 402 463 36,000  Level Kansas City Center
01:58PM 38.4192 -93.5769 259° West 405 466 36,000  Level Kansas City Center
01:59PM 38.3958 -93.7189 258° West 406 467 36,000  Level Kansas City Center
02:00PM 38.3736 -93.8608 259° West 408 470 36,000  Level Kansas City Center
02:01PM 38.3519 -94.0017 259° West 407 468 36,000  Level Kansas City Center
02:03PM 38.3247 -94.1669 258° West 406 467 36,000  Level Kansas City Center
02:04PM 38.3014 -94.3025 258° West 408 470 36,000  Level Kansas City Center
02:05PM 38.2806 -94.4342 259° West 404 465 36,000  Level Kansas City Center
02:06PM 38.2561 -94.5894 259° West 401 461 36,000  Level Kansas City Center
02:07PM 38.2353 -94.7219 259° West 400 460 36,000  Level Kansas City Center
02:08PM 38.2108 -94.8758 259° West 398 458 36,000  Level Kansas City Center
02:09PM 38.1906 -95.0053 259° West 395 455 36,000  Level Kansas City Center
02:10PM 38.1647 -95.1614 258° West 399 459 36,000  Level Kansas City Center
02:11PM 38.1425 -95.2925 258° West 397 457 36,000  Level Kansas City Center
02:12PM 38.1172 -95.4447 258° West 392 451 36,000  Level Kansas City Center
02:13PM 38.0947 -95.5739 258° West 395 455 36,000  Level Kansas City Center
02:14PM 38.0714 -95.7036 257° West 392 451 36,000  Level Kansas City Center
02:15PM 38.0450 -95.8567 258° West 397 457 36,000  Level Kansas City Center
02:16PM 38.0225 -95.9886 258° West 399 459 36,000  Level Kansas City Center
02:17PM 38.0011 -96.1267 259° West 395 455 36,000  Level Kansas City Center
02:18PM 37.9772 -96.2633 258° West 397 457 36,000  Level Kansas City Center
02:19PM 37.9503 -96.4261 258° West 394 453 36,000  Level Kansas City Center
02:20PM 37.9278 -96.5606 258° West 393 452 36,000  Level Kansas City Center
02:21PM 37.9056 -96.6956 258° West 392 451 36,000  Level Kansas City Center
02:22PM 37.8831 -96.8289 258° West 388 447 36,000  Level Kansas City Center
02:23PM 37.8589 -96.9636 257° West 391 450 36,000  Level Kansas City Center
02:24PM 37.8339 -97.0964 257° West 390 449 36,000  Level Kansas City Center
02:25PM 37.8053 -97.2572 257° West 391 450 36,000  Level Kansas City Center
02:26PM 37.7803 -97.3919 257° West 392 451 36,000  Level Kansas City Center
02:27PM 37.7556 -97.5242 257° West 389 448 36,000  Level Kansas City Center
02:28PM 37.7306 -97.6592 257° West 391 450 36,000  Level Kansas City Center
02:29PM 37.7039 -97.7917 256° West 389 448 36,000  Level Kansas City Center
02:30PM 37.6794 -97.9278 257° West 393 452 36,000  Level Kansas City Center
02:31PM 37.6489 -98.0875 256° West 391 450 36,000  Level Kansas City Center
02:33PM 37.6264 -98.2008 256° West 390 449 36,000  Level Kansas City Center
02:34PM 37.6003 -98.3344 256° West 391 450 36,000  Level Kansas City Center
02:35PM 37.5683 -98.4950 256° West 392 451 36,000 540 Level Kansas City Center
02:36PM 37.5425 -98.6258 256° West 387 445 37,200 960 Climbing Kansas City Center
02:37PM 37.5175 -98.7519 256° West 376 433 38,000 360 Climbing Kansas City Center
02:38PM 37.4922 -98.8764 256° West 368 423 38,000  Level Kansas City Center
02:39PM 37.4653 -99.0019 255° West 371 427 38,000  Level Kansas City Center
02:40PM 37.4400 -99.1294 256° West 373 429 38,000  Level Kansas City Center
02:41PM 37.4061 -99.2783 254° West 372 428 38,000  Level Kansas City Center
02:42PM 37.3811 -99.4047 256° West 371 427 38,000  Level Kansas City Center
02:43PM 37.3581 -99.5214 256° West 366 421 38,000  Level Kansas City Center
02:44PM 37.3289 -99.6597 255° West 366 421 38,000  Level Kansas City Center
02:45PM 37.3044 -99.7781 255° West 366 421 38,000  Level Kansas City Center
02:46PM 37.2750 -99.9156 255° West 365 420 38,000  Level Kansas City Center
02:47PM 37.2489 -100.0344 255° West 367 422 38,000  Level Kansas City Center
02:48PM 37.2200 -100.1725 255° West 367 422 38,000  Level Kansas City Center
02:49PM 37.1933 -100.2917 254° West 369 425 38,000  Level Kansas City Center
02:50PM 37.1644 -100.4297 255° West 367 422 38,000  Level Kansas City Center
02:51PM 37.1381 -100.5483 254° West 368 423 38,000  Level Kansas City Center
02:52PM 37.1075 -100.6872 255° West 368 423 38,000  Level Kansas City Center
02:53PM 37.0803 -100.8064 254° West 370 426 38,000  Level Kansas City Center
02:54PM 37.0544 -100.9267 255° West 371 427 38,000  Level Kansas City Center
02:55PM 37.0183 -101.0636 252° West 370 426 38,000  Level Kansas City Center
02:56PM 36.9864 -101.1803 251° West 370 426 38,000  Level Kansas City Center
02:57PM 36.9478 -101.3189 251° West 375 432 38,000  Level Kansas City Center
02:58PM 36.9156 -101.4367 251° West 375 432 38,000  Level Kansas City Center
02:59PM 36.8761 -101.5756 250° West 378 435 38,000  Level Kansas City Center
03:00PM 36.8431 -101.6942 251° West 377 434 38,000  Level Kansas City Center
03:01PM 36.8044 -101.8317 251° West 376 433 38,000  Level Kansas City Center
03:02PM 36.7719 -101.9494 251° West 376 433 38,000  Level Kansas City Center
03:04PM 36.7339 -102.0853 251° West 371 427 38,000  Level Albuquerque Center
03:05PM 36.6947 -102.2206 250° West 375 432 38,000  Level Albuquerque Center
03:06PM 36.6589 -102.3433 250° West 378 435 38,000  Level Albuquerque Center
03:07PM 36.6236 -102.4672 250° West 380 437 38,000  Level Albuquerque Center
03:08PM 36.5878 -102.5906 250° West 381 438 38,000  Level Albuquerque Center
03:09PM 36.5528 -102.7139 251° West 380 437 38,000  Level Albuquerque Center
03:10PM 36.5094 -102.8594 250° West 377 434 38,000  Level Albuquerque Center
03:11PM 36.4769 -102.9778 251° West 378 435 38,000  Level Albuquerque Center
03:12PM 36.4394 -103.1006 249° West 377 434 38,000  Level Albuquerque Center
03:13PM 36.4036 -103.2261 251° West 381 438 38,000  Level Albuquerque Center
03:14PM 36.3664 -103.3503 250° West 382 440 38,000  Level Albuquerque Center
03:15PM 36.3222 -103.4958 249° West 383 441 38,000  Level Albuquerque Center
03:16PM 36.2853 -103.6206 250° West 384 442 38,000  Level Albuquerque Center
03:17PM 36.2481 -103.7450 250° West 383 441 38,000  Level Albuquerque Center
03:18PM 36.2103 -103.8675 249° West 380 437 38,000  Level Albuquerque Center
03:19PM 36.1739 -103.9911 250° West 380 437 38,000  Level Albuquerque Center
03:20PM 36.1350 -104.1119 248° West 377 434 38,000  Level Albuquerque Center
03:21PM 36.0961 -104.2369 249° West 385 443 38,000  Level Albuquerque Center
03:22PM 36.0583 -104.3617 249° West 385 443 38,000  Level Albuquerque Center
03:23PM 36.0117 -104.5108 249° West 394 453 38,000  Level Albuquerque Center
03:24PM 35.9742 -104.6350 250° West 387 445 38,000  Level Albuquerque Center
03:25PM 35.9342 -104.7614 249° West 392 451 38,000  Level Albuquerque Center
03:26PM 35.8936 -104.8894 249° West 396 456 38,000  Level Albuquerque Center
03:27PM 35.8531 -105.0158 248° West 396 456 38,000 -480 Level Albuquerque Center
03:28PM 35.8125 -105.1428 249° West 396 456 37,100 -1,320 Descending Albuquerque Center
03:29PM 35.7708 -105.2742 249° West 405 466 35,300 -1,500 Descending Albuquerque Center
03:30PM 35.7222 -105.4231 248° West 403 464 34,000 -1,380 Descending Albuquerque Center
03:31PM 35.6917 -105.5547 254° West 397 457 32,500 -1,860 Descending Albuquerque Center
03:33PM 35.6831 -105.6850 265° West 385 443 30,200 -2,280 Descending Albuquerque Center
03:34PM 35.6708 -105.8156 263° West 385 443 27,800 -2,160 Descending Albuquerque Center
03:35PM 35.6583 -105.9406 263° West 376 433 25,800 -1,920 Descending Albuquerque Center
03:36PM 35.6453 -106.0611 262° West 361 415 23,900 -1,860 Descending Albuquerque Center
03:37PM 35.6356 -106.1769 264° West 347 399 22,100 -1,860 Descending Albuquerque Center
03:38PM 35.6247 -106.2919 263° West 342 394 20,200 -1,980 Descending Albuquerque Center
03:39PM 35.6100 -106.4236 262° West 331 381 18,100 -1,920 Descending Albuquerque Center
03:40PM 35.5961 -106.5425 262° West 322 371 16,200 -1,800 Descending Albuquerque Center
03:41PM 35.5467 -106.6022 225° Southwest 297 342 14,800 -1,380 Descending Albuquerque Center
03:42PM 35.4725 -106.6422 204° Southwest 288 331 13,800 -1,200 Descending Albuquerque Center
03:42PM 35.4119 -106.6736 203° Southwest 286 329 12,500 -1,320 Descending Albuquerque Center
03:43PM 35.3978 -106.6833 209° Southwest 287 330 12,200 -1,500 Descending Albuquerque Center
03:44PM 35.3358 -106.7142 202° Southwest 278 320 11,000 -1,380 Descending Albuquerque Center
03:44PM 35.3269 -106.7214 214° Southwest 281 323 10,800 -1,200 Descending Albuquerque Center
03:45PM 35.2664 -106.6956 161° South 289 333 9,800 -1,200 Descending Albuquerque Center
03:45PM 35.2628 -106.6814 107° East 286 329 9,600 -780 Descending Albuquerque Center
03:45PM 35.2322 -106.6214 122° Southeast 264 304 9,100 -600 Descending Albuquerque Center
03:46PM 35.2164 -106.5908 122° Southeast 268 308 9,000 -120 Descending Albuquerque Center
03:46PM 35.1822 -106.5667 150° Southeast 235 270 9,000 -420 Level Albuquerque Center
03:47PM 35.1625 -106.5475 142° Southeast 241 277 8,600 -1,020 Descending Albuquerque Center
03:47PM 35.1347 -106.5272 149° Southeast 194 223 8,000 -1,020 Descending Albuquerque Center
03:48PM 35.1161 -106.5142 150° Southeast 212 244 7,600 -1,020 Descending Albuquerque Center
03:48PM 35.0867 -106.5214 191° South 173 199 7,000 -1,020 Descending Albuquerque Center
03:49PM 35.0672 -106.5197 176° South 185 213 6,600 -840 Descending Albuquerque Center
03:49PM 35.0439 -106.5325 204° Southwest 154 177 6,200 -720 Descending Albuquerque Center
03:50PM 35.0417 -106.5531 262° West 163 188 5,900 -540 Descending Albuquerque Center
03:51PM 35.0436 -106.5994 273° West 160 184 5,400 -540 Descending Albuquerque Center
03:53PM 35.0333 -106.6000 205° Southwest  Level FlightAware Approximate